Time;durP1;ratioP1;P1;durP2;ratioP2;P2;SDS_P1;SDS_P2;PMS_P1;PMS_P2;Temp;Humidity;BMP_temperature;BMP_pressure;BME280_temperature;BME280_humidity;BME280_pressure;Samples;Min_cycle;Max_cycle;Signal;HPM_P1;HPM_P2
2022/09/27 00:01:05;;;;;;;;;6.25;2.25;;;;;;;;5100443;27;45755;-67
2022/09/27 00:03:30;;;;;;;;;4.00;2.00;;;;;;;;5100104;27;45823;-67
2022/09/27 00:06:03;;;;;;;;;1.00;1.00;;;;;;;;5103987;27;47383;-68
2022/09/27 00:08:28;;;;;;;;;4.00;2.25;;;;;;;;5101133;27;45391;-67
2022/09/27 00:11:03;;;;;;;;;3.00;1.50;;;;;;;;5100035;27;45720;-67
2022/09/27 00:13:29;;;;;;;;;2.00;2.00;;;;;;;;5100120;27;45353;-68
2022/09/27 00:15:58;;;;;;;;;2.00;2.00;;;;;;;;5099926;27;45635;-67
2022/09/27 00:18:23;;;;;;;;;2.25;1.75;;;;;;;;5099688;27;45172;-67
2022/09/27 00:20:48;;;;;;;;;2.50;2.00;;;;;;;;5100724;27;45486;-67
2022/09/27 00:23:14;;;;;;;;;1.00;1.00;;;;;;;;5099981;27;45420;-68
2022/09/27 00:25:39;;;;;;;;;2.25;2.00;;;;;;;;5099816;27;46684;-67
2022/09/27 00:28:04;;;;;;;;;2.50;2.00;;;;;;;;5100119;27;45322;-68
2022/09/27 00:30:29;;;;;;;;;2.25;2.00;;;;;;;;5099921;27;45367;-68
2022/09/27 00:32:54;;;;;;;;;1.00;1.00;;;;;;;;5100297;27;45283;-67
2022/09/27 00:35:20;;;;;;;;;1.00;1.00;;;;;;;;5098666;27;45611;-68
2022/09/27 00:37:47;;;;;;;;;1.00;1.00;;;;;;;;5103103;27;45349;-68
2022/09/27 00:40:12;;;;;;;;;5.00;3.00;;;;;;;;5100071;27;45449;-68
2022/09/27 00:42:38;;;;;;;;;4.00;2.00;;;;;;;;5103834;27;45314;-67
2022/09/27 00:45:10;;;;;;;;;2.50;2.50;;;;;;;;5120239;27;46522;-68
2022/09/27 00:47:39;;;;;;;;;2.50;2.50;;;;;;;;5120204;27;45395;-68
2022/09/27 00:50:08;;;;;;;;;3.00;2.00;;;;;;;;5120249;27;45377;-68
2022/09/27 00:52:39;;;;;;;;;6.00;2.75;;;;;;;;5120098;27;45191;-69
2022/09/27 00:55:14;;;;;;;;;2.50;2.50;;;;;;;;5119739;27;45682;-68
2022/09/27 00:57:41;;;;;;;;;5.25;3.00;;;;;;;;5119787;27;45433;-69
2022/09/27 01:00:11;;;;;;;;;4.50;3.00;;;;;;;;5120032;27;45326;-69
2022/09/27 01:02:37;;;;;;;;;4.75;4.75;;;;;;;;5120169;27;45838;-68
2022/09/27 01:05:04;;;;;;;;;4.75;3.00;;;;;;;;5119663;27;46406;-69
2022/09/27 01:07:30;;;;;;;;;5.00;3.50;;;;;;;;5114437;27;45549;-68
2022/09/27 01:09:55;;;;;;;;;7.00;4.50;;;;;;;;5119740;27;45339;-68
2022/09/27 01:12:38;;;;;;;;;4.00;4.00;;;;;;;;5120149;27;45432;-68
2022/09/27 01:15:19;;;;;;;;;4.00;4.00;;;;;;;;5119407;27;45404;-68
2022/09/27 01:18:03;;;;;;;;;4.25;4.25;;;;;;;;5119813;27;45406;-67
2022/09/27 01:20:39;;;;;;;;;5.50;5.50;;;;;;;;5119797;27;45289;-67
2022/09/27 01:23:17;;;;;;;;;5.00;3.00;;;;;;;;5119653;27;45316;-67
2022/09/27 01:26:00;;;;;;;;;4.50;4.00;;;;;;;;5116316;27;46200;-67
2022/09/27 01:28:25;;;;;;;;;3.00;3.00;;;;;;;;5119258;27;45698;-67
2022/09/27 01:31:11;;;;;;;;;6.00;4.00;;;;;;;;5119343;27;45743;-67
2022/09/27 01:33:36;;;;;;;;;2.50;2.25;;;;;;;;5096735;27;45419;-67
2022/09/27 01:36:07;;;;;;;;;4.00;4.00;;;;;;;;5096390;27;45421;-68
2022/09/27 01:38:47;;;;;;;;;5.00;3.75;;;;;;;;5096318;27;45359;-68
2022/09/27 01:41:15;;;;;;;;;6.50;4.75;;;;;;;;5095286;27;45387;-67
2022/09/27 01:43:48;;;;;;;;;2.50;2.00;;;;;;;;5088293;27;45371;-68
2022/09/27 01:46:20;;;;;;;;;3.00;1.00;;;;;;;;5096301;27;46408;-67
2022/09/27 01:48:48;;;;;;;;;0.50;0.50;;;;;;;;5096107;27;45418;-68
2022/09/27 01:51:22;;;;;;;;;0.50;0.50;;;;;;;;5096516;27;45288;-68
2022/09/27 01:53:50;;;;;;;;;0.00;0.00;;;;;;;;5096203;27;45337;-68
2022/09/27 01:56:17;;;;;;;;;0.75;0.75;;;;;;;;5095673;27;47016;-68
2022/09/27 01:58:48;;;;;;;;;1.50;1.00;;;;;;;;5096317;27;45431;-68
2022/09/27 02:01:16;;;;;;;;;0.00;0.00;;;;;;;;5095456;27;45411;-67
2022/09/27 02:03:44;;;;;;;;;0.75;0.00;;;;;;;;5096561;27;45420;-68
2022/09/27 02:06:14;;;;;;;;;0.00;0.00;;;;;;;;5096044;27;46668;-68
2022/09/27 02:08:47;;;;;;;;;0.00;0.00;;;;;;;;5095956;27;45454;-68
2022/09/27 02:11:13;;;;;;;;;0.00;0.00;;;;;;;;5111476;27;45505;-67
2022/09/27 02:13:46;;;;;;;;;0.00;0.00;;;;;;;;5119197;27;45487;-68
2022/09/27 02:16:21;;;;;;;;;0.00;0.00;;;;;;;;5118412;27;47499;-68
2022/09/27 02:18:58;;;;;;;;;0.00;0.00;;;;;;;;5115910;27;45374;-68
2022/09/27 02:21:30;;;;;;;;;0.00;0.00;;;;;;;;5118957;27;45281;-67
2022/09/27 02:23:58;;;;;;;;;1.00;0.00;;;;;;;;5119056;27;45499;-67
2022/09/27 02:26:30;;;;;;;;;0.00;0.00;;;;;;;;5118393;27;45693;-68
2022/09/27 02:28:55;;;;;;;;;0.00;0.00;;;;;;;;5118412;27;45423;-68
2022/09/27 02:31:20;;;;;;;;;0.25;0.00;;;;;;;;5118897;27;45252;-68
2022/09/27 02:33:47;;;;;;;;;0.00;0.00;;;;;;;;5116644;27;45132;-68
2022/09/27 02:36:14;;;;;;;;;0.00;0.00;;;;;;;;5115964;27;45436;-68
2022/09/27 02:38:39;;;;;;;;;0.00;0.00;;;;;;;;5118565;27;45695;-68
2022/09/27 02:41:12;;;;;;;;;3.00;0.00;;;;;;;;5118487;27;45302;-67
2022/09/27 02:43:37;;;;;;;;;2.00;0.00;;;;;;;;5118784;27;45465;-68
2022/09/27 02:46:21;;;;;;;;;1.00;0.00;;;;;;;;5118110;27;45707;-68
2022/09/27 02:49:04;;;;;;;;;0.00;0.00;;;;;;;;5118455;27;45344;-67
2022/09/27 02:51:44;;;;;;;;;0.00;0.00;;;;;;;;5118514;27;45235;-67
2022/09/27 02:54:12;;;;;;;;;0.00;0.00;;;;;;;;5112681;27;45558;-67
2022/09/27 02:56:37;;;;;;;;;0.00;0.00;;;;;;;;5117889;27;46527;-67
2022/09/27 02:59:11;;;;;;;;;1.75;0.00;;;;;;;;5121959;27;45292;-67
2022/09/27 03:01:40;;;;;;;;;1.00;1.00;;;;;;;;5122106;27;45288;-67
2022/09/27 03:04:22;;;;;;;;;0.00;0.00;;;;;;;;5122370;27;45347;-67
2022/09/27 03:06:48;;;;;;;;;0.00;0.00;;;;;;;;5121683;27;45403;-67
2022/09/27 03:09:20;;;;;;;;;0.00;0.00;;;;;;;;5121437;27;45367;-66
2022/09/27 03:11:45;;;;;;;;;2.00;1.00;;;;;;;;5103587;27;45846;-67
2022/09/27 03:14:11;;;;;;;;;0.00;0.00;;;;;;;;5101170;27;45313;-67
2022/09/27 03:16:36;;;;;;;;;3.25;1.00;;;;;;;;5100863;27;45360;-67
2022/09/27 03:19:01;;;;;;;;;0.75;0.75;;;;;;;;5101126;27;45299;-67
2022/09/27 03:21:26;;;;;;;;;0.00;0.00;;;;;;;;5101025;27;45733;-67
2022/09/27 03:23:52;;;;;;;;;0.00;0.00;;;;;;;;5283593;22;45893;-66
2022/09/27 03:26:17;;;;;;;;;0.00;0.00;;;;;;;;5056598;28;45590;-67
2022/09/27 03:28:42;;;;;;;;;0.00;0.00;;;;;;;;5059595;28;45612;-67
2022/09/27 03:31:07;;;;;;;;;1.00;0.00;;;;;;;;5059538;28;45393;-67
2022/09/27 03:33:33;;;;;;;;;2.50;2.50;;;;;;;;5059821;28;45221;-67
2022/09/27 03:35:58;;;;;;;;;0.00;0.00;;;;;;;;5059475;28;45443;-67
2022/09/27 03:38:24;;;;;;;;;1.00;0.00;;;;;;;;5059335;28;45478;-67
2022/09/27 03:40:49;;;;;;;;;0.50;0.50;;;;;;;;5053841;28;45597;-67
2022/09/27 03:43:14;;;;;;;;;10.67;9.67;;;;;;;;5059704;28;45422;-68
2022/09/27 03:45:41;;;;;;;;;0.00;0.00;;;;;;;;5059424;28;46502;-67
2022/09/27 03:48:06;;;;;;;;;0.00;0.00;;;;;;;;5059410;28;45455;-67
2022/09/27 03:50:32;;;;;;;;;0.00;0.00;;;;;;;;5059726;28;45386;-68
2022/09/27 03:52:57;;;;;;;;;1.25;0.00;;;;;;;;5059198;28;45305;-68
2022/09/27 03:55:22;;;;;;;;;1.00;1.00;;;;;;;;5059303;28;45307;-68
2022/09/27 03:57:47;;;;;;;;;1.25;1.25;;;;;;;;5059187;28;45366;-67
2022/09/27 04:00:13;;;;;;;;;1.25;1.00;;;;;;;;5045450;28;45485;-67
2022/09/27 04:02:38;;;;;;;;;2.00;1.00;;;;;;;;5059478;28;45350;-67
2022/09/27 04:05:04;;;;;;;;;2.00;0.75;;;;;;;;5058696;28;45593;-67
2022/09/27 04:07:30;;;;;;;;;0.00;0.00;;;;;;;;5059030;28;45611;-69
2022/09/27 04:09:55;;;;;;;;;0.00;0.00;;;;;;;;5057813;28;45450;-64
2022/09/27 04:12:20;;;;;;;;;0.00;0.00;;;;;;;;5059157;28;45423;-68
2022/09/27 04:14:45;;;;;;;;;1.75;0.00;;;;;;;;5058686;28;46474;-68
2022/09/27 04:17:10;;;;;;;;;0.00;0.00;;;;;;;;5058675;28;45447;-68
2022/09/27 04:19:36;;;;;;;;;0.75;0.75;;;;;;;;5053654;28;45415;-67
2022/09/27 04:22:01;;;;;;;;;0.75;0.75;;;;;;;;5057785;28;45441;-67
2022/09/27 04:24:27;;;;;;;;;0.75;0.75;;;;;;;;5058284;28;45331;-67
2022/09/27 04:26:52;;;;;;;;;3.00;1.75;;;;;;;;5058705;28;45312;-67
2022/09/27 04:29:17;;;;;;;;;1.75;1.75;;;;;;;;5058620;28;45391;-67
2022/09/27 04:31:43;;;;;;;;;0.00;0.00;;;;;;;;5058894;28;45398;-67
2022/09/27 04:34:08;;;;;;;;;1.75;0.50;;;;;;;;5058435;28;47302;-68
2022/09/27 04:36:33;;;;;;;;;2.00;2.00;;;;;;;;5054585;28;45653;-67
2022/09/27 04:39:00;;;;;;;;;3.00;1.50;;;;;;;;5057004;28;45533;-67
2022/09/27 04:41:27;;;;;;;;;2.75;1.00;;;;;;;;5058539;28;45414;-67
2022/09/27 04:43:53;;;;;;;;;0.00;0.00;;;;;;;;5058173;28;46551;-68
2022/09/27 04:46:20;;;;;;;;;3.50;1.00;;;;;;;;5058246;28;45418;-67
2022/09/27 04:48:45;;;;;;;;;1.25;1.25;;;;;;;;5058579;28;45321;-67
2022/09/27 04:51:10;;;;;;;;;3.00;2.00;;;;;;;;5058422;28;45471;-67
2022/09/27 04:53:36;;;;;;;;;4.75;3.75;;;;;;;;5057973;28;45525;-67
2022/09/27 04:56:04;;;;;;;;;5.00;2.75;;;;;;;;5054873;28;45392;-67
2022/09/27 04:58:30;;;;;;;;;4.75;2.75;;;;;;;;5058072;28;45368;-68
2022/09/27 05:00:55;;;;;;;;;8.00;3.00;;;;;;;;5058235;28;45402;-67
2022/09/27 05:03:21;;;;;;;;;8.50;2.00;;;;;;;;5057903;28;46223;-67
2022/09/27 05:05:47;;;;;;;;;7.50;4.00;;;;;;;;5058057;28;45352;-67
2022/09/27 05:08:12;;;;;;;;;3.50;3.00;;;;;;;;5058015;28;45411;-68
2022/09/27 05:10:38;;;;;;;;;3.00;3.00;;;;;;;;5057905;28;46333;-67
2022/09/27 05:13:03;;;;;;;;;2.50;2.25;;;;;;;;5055800;28;45649;-67
2022/09/27 05:15:28;;;;;;;;;2.00;1.00;;;;;;;;5056954;28;45807;-67
2022/09/27 05:17:53;;;;;;;;;4.00;2.00;;;;;;;;5057951;28;45412;-67
2022/09/27 05:20:19;;;;;;;;;3.00;2.25;;;;;;;;5057656;28;45416;-67
2022/09/27 05:22:44;;;;;;;;;3.00;2.25;;;;;;;;5057568;28;46385;-68
2022/09/27 05:25:09;;;;;;;;;5.50;3.00;;;;;;;;5057649;28;45344;-68
2022/09/27 05:27:35;;;;;;;;;4.00;2.50;;;;;;;;5057636;28;45353;-67
2022/09/27 05:30:00;;;;;;;;;4.00;3.00;;;;;;;;5053277;28;45417;-68
2022/09/27 05:32:26;;;;;;;;;5.25;3.00;;;;;;;;5055828;28;45632;-68
2022/09/27 05:34:52;;;;;;;;;4.75;4.00;;;;;;;;5057320;28;45330;-69
2022/09/27 05:37:18;;;;;;;;;7.25;3.50;;;;;;;;5057714;28;45495;-68
2022/09/27 05:39:43;;;;;;;;;4.00;3.00;;;;;;;;5057601;28;45462;-69
2022/09/27 05:42:09;;;;;;;;;7.75;4.00;;;;;;;;5057283;28;47110;-68
2022/09/27 05:44:35;;;;;;;;;7.00;6.75;;;;;;;;5056762;28;45326;-69
2022/09/27 05:47:03;;;;;;;;;5.25;3.50;;;;;;;;5047772;28;45499;-68
2022/09/27 05:49:28;;;;;;;;;5.50;4.00;;;;;;;;5057855;28;45334;-68
2022/09/27 05:51:53;;;;;;;;;5.25;4.75;;;;;;;;5057260;28;45439;-69
2022/09/27 05:54:18;;;;;;;;;3.00;3.00;;;;;;;;5056546;28;45541;-68
2022/09/27 05:56:43;;;;;;;;;3.75;3.50;;;;;;;;5057031;28;45888;-68
2022/09/27 05:59:09;;;;;;;;;3.50;3.50;;;;;;;;5057157;28;45621;-68
2022/09/27 06:01:34;;;;;;;;;2.25;2.00;;;;;;;;5057412;28;46715;-68
2022/09/27 06:03:59;;;;;;;;;5.00;4.75;;;;;;;;5054150;28;45385;-69
2022/09/27 06:06:24;;;;;;;;;3.75;3.25;;;;;;;;5057226;28;45475;-68
2022/09/27 06:08:50;;;;;;;;;6.75;5.00;;;;;;;;5057527;28;45400;-68
2022/09/27 06:11:15;;;;;;;;;7.33;7.00;;;;;;;;5056962;28;45555;-68
2022/09/27 06:13:40;;;;;;;;;56.00;45.67;;;;;;;;5056185;28;45430;-68
2022/09/27 06:16:08;;;;;;;;;11.00;10.67;;;;;;;;5057320;28;45514;-68
2022/09/27 06:18:33;;;;;;;;;9.67;8.00;;;;;;;;5057312;28;45162;-68
2022/09/27 06:20:59;;;;;;;;;6.67;6.33;;;;;;;;5057058;28;45252;-68
2022/09/27 06:23:25;;;;;;;;;10.00;7.00;;;;;;;;5056967;28;45522;-68
2022/09/27 06:25:51;;;;;;;;;4.75;4.00;;;;;;;;5056835;28;45398;-68
2022/09/27 06:28:17;;;;;;;;;5.00;5.00;;;;;;;;5056604;28;45489;-68
2022/09/27 06:30:43;;;;;;;;;8.75;6.00;;;;;;;;5056512;28;47333;-68
2022/09/27 06:33:10;;;;;;;;;11.50;7.00;;;;;;;;5056021;28;45395;-68
2022/09/27 06:35:35;;;;;;;;;9.25;7.25;;;;;;;;5056787;28;45948;-68
2022/09/27 06:38:04;;;;;;;;;9.33;7.33;;;;;;;;5057170;28;45335;-68
2022/09/27 06:40:29;;;;;;;;;10.00;6.50;;;;;;;;5056586;28;46425;-68
2022/09/27 06:43:01;;;;;;;;;8.67;5.67;;;;;;;;5056519;28;45372;-68
2022/09/27 06:45:26;;;;;;;;;9.00;5.00;;;;;;;;5056885;28;45472;-68
2022/09/27 06:47:52;;;;;;;;;5.00;5.00;;;;;;;;5057052;28;45446;-69
2022/09/27 06:50:17;;;;;;;;;7.00;6.00;;;;;;;;5056575;28;46438;-69
2022/09/27 06:52:46;;;;;;;;;8.50;5.75;;;;;;;;5056661;28;45367;-68
2022/09/27 06:55:11;;;;;;;;;3.75;3.75;;;;;;;;5056570;28;45445;-68
2022/09/27 07:00:25;;;;;;;;;4.75;4.25;;;;;;;;5056596;28;45371;-68
2022/09/27 07:02:50;;;;;;;;;5.50;5.50;;;;;;;;5056359;28;45379;-68
2022/09/27 07:05:16;;;;;;;;;4.00;4.00;;;;;;;;5056594;28;45421;-68
2022/09/27 07:07:47;;;;;;;;;6.00;3.75;;;;;;;;5056617;28;45391;-68
2022/09/27 07:10:12;;;;;;;;;6.25;6.25;;;;;;;;5056386;28;46152;-68
2022/09/27 07:12:38;;;;;;;;;8.50;6.25;;;;;;;;5056422;28;45458;-68
2022/09/27 07:15:04;;;;;;;;;12.33;8.67;;;;;;;;5056483;28;45229;-68
2022/09/27 07:17:29;;;;;;;;;5.25;5.25;;;;;;;;5056775;28;45443;-68
2022/09/27 07:19:55;;;;;;;;;7.00;4.50;;;;;;;;5056197;28;45352;-68
2022/09/27 07:22:20;;;;;;;;;6.50;4.00;;;;;;;;5056340;28;45388;-68
2022/09/27 07:24:45;;;;;;;;;8.00;6.33;;;;;;;;5056448;28;45470;-68
2022/09/27 07:27:10;;;;;;;;;7.33;6.00;;;;;;;;5056436;28;45525;-68
2022/09/27 07:29:36;;;;;;;;;5.25;4.75;;;;;;;;5056148;28;45681;-68
2022/09/27 07:32:01;;;;;;;;;5.00;4.00;;;;;;;;5056250;28;45393;-68
2022/09/27 07:34:26;;;;;;;;;3.00;3.00;;;;;;;;5056208;28;45800;-67
2022/09/27 07:36:53;;;;;;;;;1.25;1.25;;;;;;;;5056486;28;45312;-68
2022/09/27 07:39:20;;;;;;;;;3.25;2.25;;;;;;;;5055799;28;47617;-67
2022/09/27 07:41:46;;;;;;;;;2.75;2.75;;;;;;;;5055960;28;45406;-69
2022/09/27 07:44:11;;;;;;;;;1.75;1.00;;;;;;;;5058387;28;45313;-68
2022/09/27 07:46:37;;;;;;;;;3.00;1.00;;;;;;;;5059802;28;45533;-68
2022/09/27 07:49:02;;;;;;;;;1.00;1.00;;;;;;;;5059389;28;46314;-67
2022/09/27 07:51:28;;;;;;;;;0.25;0.25;;;;;;;;5058623;28;45462;-68
2022/09/27 07:53:53;;;;;;;;;1.00;1.00;;;;;;;;5059244;28;45397;-68
2022/09/27 07:56:18;;;;;;;;;0.50;0.50;;;;;;;;5059167;28;45436;-67
2022/09/27 07:58:43;;;;;;;;;2.00;1.25;;;;;;;;5059184;28;46223;-68
2022/09/27 08:01:09;;;;;;;;;3.00;1.00;;;;;;;;5058413;28;45260;-67
2022/09/27 08:03:35;;;;;;;;;4.25;1.00;;;;;;;;5059053;28;45308;-68
2022/09/27 08:06:01;;;;;;;;;2.50;1.00;;;;;;;;5059233;28;45439;-68
2022/09/27 08:08:27;;;;;;;;;2.00;2.00;;;;;;;;5059087;28;45573;-67
2022/09/27 08:10:52;;;;;;;;;2.00;1.00;;;;;;;;5059018;28;45404;-67
2022/09/27 08:13:18;;;;;;;;;0.50;0.50;;;;;;;;5059185;28;45343;-68
2022/09/27 08:15:44;;;;;;;;;2.50;2.50;;;;;;;;5059077;28;45703;-68
2022/09/27 08:18:09;;;;;;;;;4.00;4.00;;;;;;;;5058750;28;46334;-68
2022/09/27 08:20:34;;;;;;;;;2.50;1.00;;;;;;;;5058832;28;45399;-67
2022/09/27 08:23:03;;;;;;;;;2.00;2.00;;;;;;;;5059006;28;45479;-68
2022/09/27 08:25:29;;;;;;;;;1.00;1.00;;;;;;;;5058608;28;45380;-67
2022/09/27 08:27:55;;;;;;;;;1.75;1.25;;;;;;;;5058768;28;45827;-67
2022/09/27 08:30:20;;;;;;;;;1.50;1.50;;;;;;;;5058576;28;45402;-68
2022/09/27 08:32:46;;;;;;;;;1.75;1.00;;;;;;;;5058964;28;45246;-68
2022/09/27 08:35:14;;;;;;;;;2.00;2.00;;;;;;;;5058944;28;45214;-68
2022/09/27 08:37:39;;;;;;;;;1.00;1.00;;;;;;;;5058498;28;46515;-68
2022/09/27 08:40:06;;;;;;;;;2.00;2.00;;;;;;;;5058715;28;45356;-68
2022/09/27 08:42:52;;;;;;;;;1.00;1.00;;;;;;;;5058485;28;45431;-68
2022/09/27 08:45:23;;;;;;;;;3.00;3.00;;;;;;;;5058786;28;45316;-69
2022/09/27 08:47:54;;;;;;;;;1.00;1.00;;;;;;;;5058220;28;46635;-68
2022/09/27 08:50:33;;;;;;;;;2.00;2.00;;;;;;;;5058686;28;45416;-67
2022/09/27 08:53:13;;;;;;;;;4.50;2.00;;;;;;;;5058497;28;45324;-69
2022/09/27 08:55:40;;;;;;;;;4.00;2.00;;;;;;;;5057685;28;45359;-68
2022/09/27 08:58:26;;;;;;;;;2.00;2.00;;;;;;;;5058204;28;45439;-70
2022/09/27 09:00:54;;;;;;;;;3.00;1.00;;;;;;;;5057940;28;45662;-68
2022/09/27 09:03:21;;;;;;;;;2.00;1.25;;;;;;;;5058194;28;45457;-68
2022/09/27 09:05:52;;;;;;;;;3.75;2.00;;;;;;;;5058309;28;45473;-69
2022/09/27 09:08:29;;;;;;;;;1.50;1.50;;;;;;;;5058306;28;46313;-69
2022/09/27 09:14:12;;;;;;;;;1.25;1.00;;;;;;;;5058231;28;45338;-69
2022/09/27 09:16:51;;;;;;;;;1.00;1.00;;;;;;;;5056791;28;45458;-69
2022/09/27 09:19:36;;;;;;;;;4.50;2.75;;;;;;;;5058186;28;46472;-70
2022/09/27 09:22:08;;;;;;;;;1.00;0.00;;;;;;;;5057867;28;45395;-69
2022/09/27 09:24:33;;;;;;;;;1.25;0.00;;;;;;;;5057959;28;46280;-68
2022/09/27 09:26:59;;;;;;;;;1.00;0.00;;;;;;;;5058179;28;45307;-69
2022/09/27 09:29:24;;;;;;;;;4.50;4.00;;;;;;;;5057841;28;45564;-68
2022/09/27 09:32:04;;;;;;;;;5.50;0.25;;;;;;;;5056573;28;45340;-68
2022/09/27 09:34:32;;;;;;;;;0.00;0.00;;;;;;;;5058286;28;45204;-68
2022/09/27 09:36:57;;;;;;;;;0.50;0.50;;;;;;;;5058008;28;45348;-67
2022/09/27 09:39:30;;;;;;;;;3.50;0.50;;;;;;;;5057734;28;45668;-67
2022/09/27 09:41:58;;;;;;;;;1.25;1.25;;;;;;;;5057900;28;45404;-68
2022/09/27 09:44:27;;;;;;;;;0.25;0.25;;;;;;;;5057766;28;45389;-69
2022/09/27 09:46:57;;;;;;;;;1.00;1.00;;;;;;;;5057922;28;45363;-67
2022/09/27 09:49:27;;;;;;;;;0.25;0.25;;;;;;;;5056813;28;45415;-68
2022/09/27 09:52:00;;;;;;;;;1.50;0.00;;;;;;;;5057265;28;45459;-67
2022/09/27 09:54:30;;;;;;;;;1.00;1.00;;;;;;;;5057498;28;45286;-67
2022/09/27 09:57:14;;;;;;;;;0.00;0.00;;;;;;;;5057687;28;45272;-67
2022/09/27 10:00:00;;;;;;;;;1.00;0.00;;;;;;;;5057593;28;45723;-67
2022/09/27 10:02:26;;;;;;;;;1.25;1.00;;;;;;;;5057211;28;45453;-67
2022/09/27 10:04:51;;;;;;;;;0.00;0.00;;;;;;;;5057284;28;45339;-67
2022/09/27 10:07:20;;;;;;;;;1.75;1.75;;;;;;;;5056319;28;45463;-67
2022/09/27 10:09:45;;;;;;;;;1.00;1.00;;;;;;;;5057426;28;45638;-66
2022/09/27 10:12:11;;;;;;;;;0.00;0.00;;;;;;;;5057056;28;45498;-66
2022/09/27 10:14:37;;;;;;;;;1.75;0.00;;;;;;;;5056969;28;45405;-66
2022/09/27 10:17:03;;;;;;;;;0.00;0.00;;;;;;;;5057342;28;45438;-68
2022/09/27 10:19:30;;;;;;;;;2.00;0.00;;;;;;;;5056808;28;45403;-68
2022/09/27 10:21:59;;;;;;;;;0.00;0.00;;;;;;;;5057377;28;45299;-68
2022/09/27 10:24:24;;;;;;;;;1.75;0.00;;;;;;;;5056515;28;45395;-67
2022/09/27 10:26:50;;;;;;;;;3.00;0.00;;;;;;;;5057223;28;45324;-68
2022/09/27 10:29:18;;;;;;;;;2.00;0.50;;;;;;;;5056779;28;45589;-68
2022/09/27 10:31:46;;;;;;;;;1.00;0.00;;;;;;;;5056754;28;45386;-68
2022/09/27 10:34:18;;;;;;;;;1.00;1.00;;;;;;;;5057246;28;45315;-68
2022/09/27 10:36:43;;;;;;;;;4.00;3.00;;;;;;;;5056811;28;45404;-68
2022/09/27 10:39:19;;;;;;;;;0.00;0.00;;;;;;;;5056601;28;46235;-67
2022/09/27 10:41:44;;;;;;;;;7.00;5.25;;;;;;;;5056751;28;45469;-68
2022/09/27 10:44:16;;;;;;;;;2.00;1.00;;;;;;;;5056670;28;45402;-68
2022/09/27 10:46:42;;;;;;;;;3.25;0.25;;;;;;;;5056806;28;45396;-68
2022/09/27 10:49:19;;;;;;;;;0.00;0.00;;;;;;;;5056747;28;45284;-68
2022/09/27 10:51:45;;;;;;;;;1.00;0.00;;;;;;;;5056525;28;45287;-68
2022/09/27 10:54:26;;;;;;;;;0.25;0.00;;;;;;;;5056766;28;45356;-67
2022/09/27 10:57:03;;;;;;;;;1.50;0.75;;;;;;;;5056130;28;45581;-68
2022/09/27 10:59:30;;;;;;;;;0.75;0.75;;;;;;;;5056678;28;45637;-68
2022/09/27 11:01:57;;;;;;;;;1.00;1.00;;;;;;;;5056261;28;45320;-68
2022/09/27 11:04:25;;;;;;;;;0.00;0.00;;;;;;;;5056722;28;45356;-69
2022/09/27 11:06:50;;;;;;;;;3.00;0.00;;;;;;;;5056753;28;45401;-68
2022/09/27 11:09:18;;;;;;;;;0.00;0.00;;;;;;;;5056551;28;45482;-67
2022/09/27 11:11:44;;;;;;;;;0.25;0.00;;;;;;;;5056334;28;45449;-67
2022/09/27 11:14:20;;;;;;;;;0.25;0.00;;;;;;;;5056704;28;45400;-68
2022/09/27 11:16:51;;;;;;;;;2.00;0.00;;;;;;;;5056621;28;45255;-68
2022/09/27 11:19:28;;;;;;;;;0.25;0.25;;;;;;;;5058736;28;47000;-67
2022/09/27 11:22:12;;;;;;;;;1.50;0.00;;;;;;;;5060069;28;45274;-68
2022/09/27 11:24:56;;;;;;;;;0.75;0.75;;;;;;;;5060037;28;45313;-68
2022/09/27 11:27:44;;;;;;;;;3.00;0.50;;;;;;;;5058717;28;45767;-69
2022/09/27 11:30:09;;;;;;;;;0.50;0.50;;;;;;;;5059665;28;46531;-68
2022/09/27 11:32:34;;;;;;;;;0.75;0.00;;;;;;;;5059801;28;45392;-68
2022/09/27 11:35:18;;;;;;;;;3.25;1.00;;;;;;;;5059837;28;45345;-68
2022/09/27 11:37:55;;;;;;;;;0.75;0.00;;;;;;;;5060118;28;45277;-68
2022/09/27 11:40:20;;;;;;;;;1.50;0.00;;;;;;;;5059652;28;45368;-68
2022/09/27 11:43:01;;;;;;;;;1.00;1.00;;;;;;;;5059440;28;45280;-68
2022/09/27 11:45:26;;;;;;;;;1.00;1.00;;;;;;;;5059688;28;45285;-67
2022/09/27 11:47:59;;;;;;;;;2.00;0.00;;;;;;;;5060023;28;45328;-68
2022/09/27 11:50:41;;;;;;;;;2.25;0.25;;;;;;;;5059280;28;45604;-69
2022/09/27 11:53:30;;;;;;;;;0.25;0.25;;;;;;;;5059448;28;45458;-69
2022/09/27 11:56:02;;;;;;;;;0.00;0.00;;;;;;;;5059289;28;45291;-68
2022/09/27 11:58:27;;;;;;;;;0.00;0.00;;;;;;;;5059461;28;45476;-68
2022/09/27 12:01:11;;;;;;;;;0.75;0.00;;;;;;;;5059538;28;45490;-68
2022/09/27 12:03:43;;;;;;;;;0.00;0.00;;;;;;;;5059219;28;45396;-68
2022/09/27 12:06:15;;;;;;;;;1.00;0.00;;;;;;;;5059336;28;45296;-68
2022/09/27 12:09:01;;;;;;;;;0.00;0.00;;;;;;;;5059396;28;45324;-68
2022/09/27 12:11:27;;;;;;;;;1.00;0.00;;;;;;;;5059116;28;45579;-68
2022/09/27 12:14:16;;;;;;;;;0.00;0.00;;;;;;;;5059097;28;45341;-68
2022/09/27 12:16:42;;;;;;;;;4.00;1.00;;;;;;;;5059240;28;45471;-68
2022/09/27 12:19:26;;;;;;;;;0.25;0.00;;;;;;;;5059094;28;45483;-67
2022/09/27 12:21:53;;;;;;;;;1.00;0.00;;;;;;;;5058819;28;45832;-68
2022/09/27 12:24:22;;;;;;;;;1.00;0.00;;;;;;;;5058747;28;45427;-69
2022/09/27 12:26:50;;;;;;;;;0.00;0.00;;;;;;;;5058893;28;45224;-68
2022/09/27 12:29:32;;;;;;;;;0.00;0.00;;;;;;;;5058436;28;45355;-69
2022/09/27 12:32:19;;;;;;;;;0.75;0.50;;;;;;;;5058746;28;47359;-68
2022/09/27 12:34:54;;;;;;;;;0.50;0.00;;;;;;;;5058584;28;45412;-67
2022/09/27 12:37:24;;;;;;;;;1.00;0.00;;;;;;;;5059059;28;45234;-68
2022/09/27 12:39:53;;;;;;;;;0.00;0.00;;;;;;;;5058779;28;45730;-68
2022/09/27 12:42:21;;;;;;;;;0.50;0.00;;;;;;;;5058322;28;47425;-68
2022/09/27 12:44:47;;;;;;;;;0.00;0.00;;;;;;;;5058785;28;45449;-68
2022/09/27 12:47:30;;;;;;;;;0.00;0.00;;;;;;;;5058756;28;45425;-68
2022/09/27 12:50:02;;;;;;;;;2.50;0.00;;;;;;;;5058846;28;45339;-68
2022/09/27 12:52:30;;;;;;;;;1.00;0.00;;;;;;;;5058517;28;46374;-68
2022/09/27 12:55:04;;;;;;;;;1.25;0.50;;;;;;;;5058248;28;45427;-68
2022/09/27 12:57:42;;;;;;;;;1.00;1.00;;;;;;;;5058445;28;45363;-69
2022/09/27 13:00:09;;;;;;;;;1.00;1.00;;;;;;;;5058448;28;45738;-68
2022/09/27 13:02:50;;;;;;;;;0.25;0.25;;;;;;;;5058167;28;47278;-68
2022/09/27 13:05:27;;;;;;;;;0.75;0.00;;;;;;;;5058304;28;45844;-68
2022/09/27 13:08:11;;;;;;;;;0.00;0.00;;;;;;;;5058472;28;45378;-69
2022/09/27 13:10:52;;;;;;;;;1.25;0.00;;;;;;;;5058594;28;45406;-69
2022/09/27 13:13:20;;;;;;;;;0.00;0.00;;;;;;;;5057923;28;45594;-68
2022/09/27 13:15:46;;;;;;;;;1.00;1.00;;;;;;;;5058029;28;45171;-68
2022/09/27 13:18:31;;;;;;;;;2.00;1.00;;;;;;;;5058243;28;45426;-68
2022/09/27 13:20:56;;;;;;;;;0.50;0.50;;;;;;;;5054094;28;46229;-68
2022/09/27 13:23:22;;;;;;;;;2.00;1.75;;;;;;;;5057786;28;46114;-68
2022/09/27 13:26:19;;;;;;;;;2.50;1.50;;;;;;;;5057676;28;45327;-68
2022/09/27 13:28:47;;;;;;;;;1.00;1.00;;;;;;;;5058048;28;45367;-68
2022/09/27 13:31:13;;;;;;;;;1.00;0.75;;;;;;;;5058044;28;45325;-68
2022/09/27 13:33:46;;;;;;;;;0.00;0.00;;;;;;;;5057668;28;46471;-68
2022/09/27 13:36:24;;;;;;;;;1.00;0.00;;;;;;;;5057801;28;45433;-68
2022/09/27 13:39:05;;;;;;;;;0.50;0.00;;;;;;;;5057786;28;45171;-68
2022/09/27 13:41:33;;;;;;;;;0.00;0.00;;;;;;;;5057722;28;45450;-69
2022/09/27 13:44:22;;;;;;;;;1.00;1.00;;;;;;;;5057321;28;46602;-68
2022/09/27 13:46:59;;;;;;;;;0.00;0.00;;;;;;;;5057550;28;45480;-68
2022/09/27 13:49:37;;;;;;;;;4.00;1.00;;;;;;;;5057827;28;45352;-67
2022/09/27 13:52:19;;;;;;;;;2.00;0.25;;;;;;;;5057960;28;45491;-68
2022/09/27 13:54:50;;;;;;;;;0.25;0.25;;;;;;;;5057332;28;46459;-68
2022/09/27 13:57:34;;;;;;;;;2.00;0.25;;;;;;;;5057306;28;45466;-68
2022/09/27 14:00:01;;;;;;;;;0.50;0.50;;;;;;;;5057553;28;45250;-69
2022/09/27 14:02:29;;;;;;;;;1.75;0.50;;;;;;;;5057599;28;45446;-68
2022/09/27 14:04:55;;;;;;;;;2.00;2.00;;;;;;;;5057225;28;47454;-68
2022/09/27 14:07:24;;;;;;;;;0.00;0.00;;;;;;;;5057338;28;45326;-68
2022/09/27 14:09:52;;;;;;;;;1.00;0.00;;;;;;;;5057464;28;45448;-68
2022/09/27 14:12:19;;;;;;;;;0.00;0.00;;;;;;;;5057592;28;45484;-69
2022/09/27 14:14:46;;;;;;;;;4.00;2.25;;;;;;;;5056811;28;45661;-68
2022/09/27 14:17:12;;;;;;;;;0.00;0.00;;;;;;;;5057247;28;45351;-68
2022/09/27 14:19:41;;;;;;;;;2.00;1.00;;;;;;;;5057211;28;45269;-67
2022/09/27 14:22:16;;;;;;;;;3.50;1.75;;;;;;;;5057348;28;45250;-68
2022/09/27 14:24:44;;;;;;;;;0.25;0.00;;;;;;;;5056704;28;45495;-68
2022/09/27 14:27:09;;;;;;;;;4.75;0.50;;;;;;;;5056783;28;45750;-68
2022/09/27 14:29:39;;;;;;;;;9.67;9.67;;;;;;;;5057266;28;45409;-68
2022/09/27 14:32:08;;;;;;;;;2.00;0.00;;;;;;;;5057346;28;45494;-68
2022/09/27 14:34:33;;;;;;;;;0.00;0.00;;;;;;;;5056905;28;47397;-69
2022/09/27 14:39:42;;;;;;;;;0.00;0.00;;;;;;;;5057080;28;45435;-68
2022/09/27 14:42:21;;;;;;;;;3.00;3.00;;;;;;;;5056813;28;45424;-69
2022/09/27 14:44:47;;;;;;;;;3.00;0.00;;;;;;;;5056571;28;46606;-67
2022/09/27 14:47:25;;;;;;;;;0.00;0.00;;;;;;;;5056917;28;45503;-68
2022/09/27 14:49:50;;;;;;;;;0.00;0.00;;;;;;;;5056925;28;45198;-68
2022/09/27 14:52:20;;;;;;;;;0.50;0.00;;;;;;;;5057177;28;45307;-68
2022/09/27 14:54:54;;;;;;;;;0.00;0.00;;;;;;;;5058607;28;47436;-68
2022/09/27 14:57:19;;;;;;;;;4.00;1.00;;;;;;;;5060220;28;45441;-68
2022/09/27 14:59:46;;;;;;;;;0.50;0.50;;;;;;;;5060297;28;45307;-68
2022/09/27 15:02:17;;;;;;;;;1.50;0.25;;;;;;;;5060291;28;45534;-68
2022/09/27 15:04:45;;;;;;;;;5.75;1.25;;;;;;;;5059967;28;46696;-68